Girona, Spain
Current Conditions -  °F | °C
As of 2:30 PM on Thursday 18 Dec 2014 (Local Time) from LEGE Reporting Station
Few Clouds Few Clouds  
Wind Chill: 63°   Ceiling: Unl
Heat Index: 63°   Visibility: 6mi
Dew Point: 48°   Wind: 0mph
Humidity: 59%   Direction: NA
Pressure: 30.18"   Gusts: NA
Location:  41.98°N, 2.82°E
Report Text: LEGE 181330Z 00000KT 9999 FEW090 17/09 Q1022
Loading
Personal Weather Stations






























Interactive Weather Map New forecast layout! Learn more

10-Day Weather Forecast

Advertisements
Track Severe Weather on mobile